Time;durP1;ratioP1;P1;durP2;ratioP2;P2;SDS_P1;SDS_P2;PMS_P1;PMS_P2;Temp;Humidity;BMP_temperature;BMP_pressure;BME280_temperature;BME280_humidity;BME280_pressure;Samples;Min_cycle;Max_cycle;Signal;HPM_P1;HPM_P2
2023/03/22 06:53:07;;;;;;;7.20;3.17;;;;;;;;;;10592697;27;20496;-81
2023/03/22 06:58:08;;;;;;;3.80;2.25;;;;;;;;;;10573727;28;20028;-81
2023/03/22 07:03:09;;;;;;;5.15;2.63;;;;;;;;;;10573671;22;20116;-82
2023/03/22 07:08:11;;;;;;;5.43;2.55;;;;;;;;;;10512942;28;20401;-81
2023/03/22 07:13:12;;;;;;;4.47;2.70;;;;;;;;;;10503524;28;20489;-82
2023/03/22 07:18:13;;;;;;;6.32;2.58;;;;;;;;;;10522831;28;20058;-82
2023/03/22 07:23:15;;;;;;;4.95;2.80;;;;;;;;;;10523229;28;20032;-82
2023/03/22 07:28:16;;;;;;;3.20;1.70;;;;;;;;;;10524426;28;20031;-81
2023/03/22 07:33:17;;;;;;;7.57;1.73;;;;;;;;;;10523838;28;20040;-82
2023/03/22 07:38:18;;;;;;;;;;;;;;;;;;10525122;28;20032;-82
2023/03/22 07:43:19;;;;;;;;;;;;;;;;;;10525649;28;19904;-82
2023/03/22 07:48:20;;;;;;;3.83;1.95;;;;;;;;;;10526580;28;19908;-82
2023/03/22 07:53:22;;;;;;;7.80;2.90;;;;;;;;;;10523964;28;20223;-83
2023/03/22 07:58:23;;;;;;;6.00;2.30;;;;;;;;;;10546429;28;20028;-83
2023/03/22 08:03:24;;;;;;;5.53;2.35;;;;;;;;;;10504223;28;20047;-81
2023/03/22 08:08:25;;;;;;;;;;;;;;;;;;10500966;28;20119;-79
2023/03/22 08:13:26;;;;;;;6.15;2.88;;;;;;;;;;10500422;28;19904;-82
2023/03/22 08:18:30;;;;;;;;;;;;;;;;;;10505640;28;20072;-82
2023/03/22 08:23:57;;;;;;;6.13;2.70;;;;;;;;;;10505154;28;19905;-83
2023/03/22 08:28:58;;;;;;;4.72;2.28;;;;;;;;;;10501312;28;20082;-82
2023/03/22 08:34:13;;;;;;;5.47;2.35;;;;;;;;;;10501854;28;20111;-82
2023/03/22 08:39:15;;;;;;;8.48;4.65;;;;;;;;;;10501002;28;20039;-82
2023/03/22 08:44:16;;;;;;;11.07;7.15;;;;;;;;;;10500759;28;20116;-82
2023/03/22 08:49:17;;;;;;;;;;;;;;;;;;10503176;28;20025;-81
2023/03/22 08:54:18;;;;;;;12.80;8.43;;;;;;;;;;10530812;28;19904;-81
2023/03/22 08:59:19;;;;;;;;;;;;;;;;;;10514129;28;20033;-81
2023/03/22 09:04:20;;;;;;;13.00;9.25;;;;;;;;;;10514636;28;19955;-80
2023/03/22 09:09:21;;;;;;;;;;;;;;;;;;10519254;28;20033;-81
2023/03/22 09:14:22;;;;;;;9.30;4.63;;;;;;;;;;10530450;28;20008;-81
2023/03/22 09:19:23;;;;;;;;;;;;;;;;;;10504390;28;20039;-81
2023/03/22 09:24:24;;;;;;;7.88;4.68;;;;;;;;;;10506324;28;19980;-82
2023/03/22 09:29:25;;;;;;;7.80;2.95;;;;;;;;;;10502474;28;20386;-84
2023/03/22 09:34:26;;;;;;;;;;;;;;;;;;10514061;28;20039;-81
2023/03/22 09:39:27;;;;;;;;;;;;;;;;;;10504124;28;19912;-81
2023/03/22 09:44:32;;;;;;;6.00;3.88;;;;;;;;;;10503531;28;20354;-83
2023/03/22 09:49:40;;;;;;;5.60;3.28;;;;;;;;;;10489802;28;20039;-82
2023/03/22 09:54:42;;;;;;;5.90;2.60;;;;;;;;;;10492703;28;20393;-82
2023/03/22 09:59:47;;;;;;;9.77;3.70;;;;;;;;;;10498062;28;20103;-82
2023/03/22 10:05:14;;;;;;;4.00;2.00;;;;;;;;;;10509604;28;20088;-82
2023/03/22 10:10:23;;;;;;;3.70;1.88;;;;;;;;;;10464568;28;20140;-82
2023/03/22 10:15:28;;;;;;;5.00;1.90;;;;;;;;;;10491614;28;20054;-81
2023/03/22 10:20:33;;;;;;;3.97;1.73;;;;;;;;;;10492829;28;20131;-82
2023/03/22 10:25:36;;;;;;;4.05;1.60;;;;;;;;;;10492043;28;20021;-82
2023/03/22 10:30:39;;;;;;;4.18;1.48;;;;;;;;;;10494286;28;20071;-83
2023/03/22 10:35:41;;;;;;;4.50;1.70;;;;;;;;;;10492184;28;20029;-81
2023/03/22 10:40:42;;;;;;;5.85;1.70;;;;;;;;;;10497046;28;20094;-81
2023/03/22 10:45:43;;;;;;;4.25;1.50;;;;;;;;;;10531940;28;20040;-80
2023/03/22 10:50:45;;;;;;;3.83;1.60;;;;;;;;;;10494515;28;20025;-82
2023/03/22 10:55:46;;;;;;;4.90;1.60;;;;;;;;;;10494670;28;20029;-81
2023/03/22 11:00:47;;;;;;;;;;;;;;;;;;10512068;28;20070;-81
2023/03/22 11:05:57;;;;;;;4.13;1.80;;;;;;;;;;10493017;28;19912;-81
2023/03/22 11:10:59;;;;;;;5.45;2.50;;;;;;;;;;10492150;28;20029;-81
2023/03/22 11:16:02;;;;;;;2.72;1.20;;;;;;;;;;10493437;28;20029;-82
2023/03/22 11:21:10;;;;;;;2.20;1.23;;;;;;;;;;10493057;28;20055;-82
2023/03/22 11:26:12;;;;;;;5.35;1.50;;;;;;;;;;10492618;28;20545;-82
2023/03/22 11:31:14;;;;;;;4.63;1.60;;;;;;;;;;10510310;28;20070;-81
2023/03/22 11:36:17;;;;;;;6.13;1.63;;;;;;;;;;10490228;28;20130;-81
2023/03/22 11:41:29;;;;;;;6.15;1.70;;;;;;;;;;10509032;28;20059;-83
2023/03/22 11:46:32;;;;;;;4.22;1.60;;;;;;;;;;10518157;28;20052;-82
2023/03/22 11:51:35;;;;;;;6.53;2.15;;;;;;;;;;10501287;28;20388;-82
2023/03/22 11:56:40;;;;;;;3.42;1.30;;;;;;;;;;10500437;28;20031;-82
2023/03/22 12:01:47;;;;;;;7.93;2.00;;;;;;;;;;10500782;28;20039;-82
2023/03/22 12:06:52;;;;;;;4.82;1.80;;;;;;;;;;10504779;28;20052;-82
2023/03/22 12:11:56;;;;;;;4.03;1.35;;;;;;;;;;10501443;28;20021;-82
2023/03/22 12:17:16;;;;;;;3.35;1.42;;;;;;;;;;10504294;28;20040;-83
2023/03/22 12:22:20;;;;;;;8.57;4.45;;;;;;;;;;10504221;28;20073;-83
2023/03/22 12:27:31;;;;;;;4.25;2.10;;;;;;;;;;10504199;28;20021;-84
2023/03/22 12:32:34;;;;;;;4.50;1.48;;;;;;;;;;10502456;28;20024;-83
2023/03/22 12:37:36;;;;;;;4.03;1.60;;;;;;;;;;10509471;28;20142;-83
2023/03/22 12:42:44;;;;;;;4.13;1.48;;;;;;;;;;10495400;28;20051;-83
2023/03/22 12:47:48;;;;;;;3.00;1.40;;;;;;;;;;10524998;28;20396;-83
2023/03/22 12:52:50;;;;;;;4.35;1.55;;;;;;;;;;10516898;28;20107;-82
2023/03/22 12:57:53;;;;;;;2.67;1.10;;;;;;;;;;10498881;28;20059;-83
2023/03/22 13:02:59;;;;;;;3.35;1.50;;;;;;;;;;10533183;22;20051;-81
2023/03/22 13:08:04;;;;;;;4.18;1.10;;;;;;;;;;10555921;28;20051;-80
2023/03/22 13:13:05;;;;;;;2.83;1.08;;;;;;;;;;10554489;28;20019;-81
2023/03/22 13:18:06;;;;;;;;;;;;;;;;;;10554191;28;20042;-83
2023/03/22 13:23:10;;;;;;;10.02;7.05;;;;;;;;;;10535471;28;19912;-81
2023/03/22 13:28:23;;;;;;;4.40;1.40;;;;;;;;;;10550651;28;20032;-80
2023/03/22 13:33:28;;;;;;;5.47;1.20;;;;;;;;;;10552986;28;20024;-80
2023/03/22 13:38:33;;;;;;;2.53;1.30;;;;;;;;;;10553262;28;20115;-79
2023/03/22 13:43:34;;;;;;;4.30;1.25;;;;;;;;;;10553307;28;20416;-80
2023/03/22 13:48:35;;;;;;;;;;;;;;;;;;10557367;28;20013;-80
2023/03/22 13:53:36;;;;;;;4.88;1.35;;;;;;;;;;10538373;28;19908;-80
2023/03/22 13:58:53;;;;;;;4.93;1.65;;;;;;;;;;10551352;28;20089;-82
2023/03/22 14:03:56;;;;;;;3.88;1.73;;;;;;;;;;10555129;28;20032;-79
2023/03/22 14:09:05;;;;;;;4.25;1.25;;;;;;;;;;10550855;28;20066;-79
2023/03/22 14:14:32;;;;;;;2.03;1.10;;;;;;;;;;10551401;28;20020;-78
2023/03/22 14:19:36;;;;;;;4.95;1.52;;;;;;;;;;10530723;28;20040;-80
2023/03/22 14:24:38;;;;;;;4.40;1.00;;;;;;;;;;10552972;28;20424;-80
2023/03/22 14:29:47;;;;;;;4.50;1.40;;;;;;;;;;10552627;28;20032;-80
2023/03/22 14:34:50;;;;;;;4.13;1.60;;;;;;;;;;10553302;28;20047;-81
2023/03/22 14:39:51;;;;;;;2.20;1.20;;;;;;;;;;10551526;28;20478;-82
2023/03/22 14:44:52;;;;;;;;;;;;;;;;;;10558917;28;20020;-80
2023/03/22 14:49:54;;;;;;;2.85;1.13;;;;;;;;;;10535414;28;19904;-80
2023/03/22 14:55:00;;;;;;;4.45;1.15;;;;;;;;;;10551234;28;20020;-80
2023/03/22 15:00:07;;;;;;;4.35;1.23;;;;;;;;;;10549249;28;20016;-79
2023/03/22 15:05:11;;;;;;;4.40;1.40;;;;;;;;;;10548568;28;20081;-79
2023/03/22 15:10:14;;;;;;;4.78;1.23;;;;;;;;;;10554751;28;20456;-78
2023/03/22 15:15:16;;;;;;;5.35;1.50;;;;;;;;;;10556620;28;20057;-79
2023/03/22 15:20:19;;;;;;;4.88;1.60;;;;;;;;;;10557006;28;20091;-80
2023/03/22 15:25:20;;;;;;;4.50;1.20;;;;;;;;;;10555263;28;20122;-82
2023/03/22 15:30:21;;;;;;;3.47;1.30;;;;;;;;;;10556376;28;20020;-80
2023/03/22 15:35:22;;;;;;;3.40;1.58;;;;;;;;;;10553980;28;20118;-80
2023/03/22 15:40:35;;;;;;;3.03;1.00;;;;;;;;;;10559917;28;20078;-80
2023/03/22 15:45:36;;;;;;;5.75;1.70;;;;;;;;;;10558818;28;20020;-80
2023/03/22 15:50:41;;;;;;;2.17;1.00;;;;;;;;;;10559071;28;20060;-80
2023/03/22 15:55:43;;;;;;;2.97;1.40;;;;;;;;;;10558189;28;20073;-80
2023/03/22 16:00:44;;;;;;;2.90;1.38;;;;;;;;;;10554676;28;20043;-81
2023/03/22 16:05:46;;;;;;;2.70;1.60;;;;;;;;;;10556620;28;20032;-81
2023/03/22 16:10:47;;;;;;;3.50;1.20;;;;;;;;;;10559747;28;20111;-80
2023/03/22 16:15:49;;;;;;;4.38;1.85;;;;;;;;;;10560478;28;20031;-80
2023/03/22 16:20:51;;;;;;;3.05;1.33;;;;;;;;;;10556958;28;20024;-81
2023/03/22 16:25:52;;;;;;;4.78;1.30;;;;;;;;;;10557842;28;20042;-79
2023/03/22 16:30:53;;;;;;;3.15;1.67;;;;;;;;;;10557188;28;20024;-79
2023/03/22 16:35:54;;;;;;;3.25;1.40;;;;;;;;;;10555011;28;20020;-80
2023/03/22 16:40:56;;;;;;;6.68;1.45;;;;;;;;;;10552790;28;20386;-79
2023/03/22 16:45:59;;;;;;;2.97;1.35;;;;;;;;;;10554318;28;20030;-79
2023/03/22 16:51:00;;;;;;;3.03;1.20;;;;;;;;;;10553081;28;20056;-79
2023/03/22 16:56:02;;;;;;;3.28;1.13;;;;;;;;;;10551235;28;20030;-79
2023/03/22 17:01:03;;;;;;;3.63;1.30;;;;;;;;;;10551176;28;20067;-79
2023/03/22 17:06:04;;;;;;;4.95;1.70;;;;;;;;;;10551995;28;20107;-79
2023/03/22 17:11:05;;;;;;;3.30;1.55;;;;;;;;;;10546571;28;20030;-78
2023/03/22 17:16:08;;;;;;;3.13;1.15;;;;;;;;;;10545946;28;20028;-79
2023/03/22 17:21:12;;;;;;;2.95;1.00;;;;;;;;;;10552114;28;20024;-78
2023/03/22 17:26:14;;;;;;;4.82;1.60;;;;;;;;;;10568799;28;20035;-77
2023/03/22 17:31:16;;;;;;;3.08;1.30;;;;;;;;;;10562768;28;20020;-78
2023/03/22 17:36:17;;;;;;;2.72;1.30;;;;;;;;;;10552931;28;20028;-79
2023/03/22 17:41:18;;;;;;;3.92;1.42;;;;;;;;;;10546698;28;20020;-79
2023/03/22 17:46:19;;;;;;;;;;;;;;;;;;10546203;28;20020;-78
2023/03/22 17:51:20;;;;;;;3.70;1.20;;;;;;;;;;10527512;28;19969;-79
2023/03/22 17:56:21;;;;;;;4.55;1.25;;;;;;;;;;10545456;28;20034;-79
2023/03/22 18:01:22;;;;;;;4.13;1.52;;;;;;;;;;10544901;28;20028;-79
2023/03/22 18:06:23;;;;;;;3.10;0.98;;;;;;;;;;10542892;28;20027;-78
2023/03/22 18:11:24;;;;;;;2.85;1.58;;;;;;;;;;10543214;28;20035;-78
2023/03/22 18:16:25;;;;;;;3.75;1.70;;;;;;;;;;10544810;28;20488;-79
2023/03/22 18:21:27;;;;;;;3.22;1.60;;;;;;;;;;10544768;28;20097;-79
2023/03/22 18:26:28;;;;;;;;;;;;;;;;;;10546300;28;20027;-79
2023/03/22 18:31:29;;;;;;;2.40;1.00;;;;;;;;;;10560045;28;19904;-78
2023/03/22 18:36:30;;;;;;;2.90;1.58;;;;;;;;;;10569374;28;20024;-80
2023/03/22 18:41:31;;;;;;;3.65;1.52;;;;;;;;;;10542717;28;20020;-80
2023/03/22 18:46:32;;;;;;;4.15;1.50;;;;;;;;;;10540032;28;20093;-77
2023/03/22 18:51:34;;;;;;;2.47;1.20;;;;;;;;;;10538514;28;20050;-77
2023/03/22 18:56:35;;;;;;;2.75;1.20;;;;;;;;;;10539862;28;20038;-78
2023/03/22 19:01:40;;;;;;;1.70;1.00;;;;;;;;;;10561654;22;20041;-83
2023/03/22 19:06:56;;;;;;;3.75;1.65;;;;;;;;;;10553843;28;20025;-83
2023/03/22 19:11:57;;;;;;;3.55;1.40;;;;;;;;;;10552955;28;20024;-84
2023/03/22 19:16:58;;;;;;;2.92;1.40;;;;;;;;;;10552990;28;20082;-84
2023/03/22 19:22:04;;;;;;;2.00;1.10;;;;;;;;;;10551978;28;20024;-84
2023/03/22 19:27:06;;;;;;;2.78;1.30;;;;;;;;;;10550503;28;20012;-84
2023/03/22 19:32:11;;;;;;;2.75;1.20;;;;;;;;;;10550631;28;20028;-84
2023/03/22 19:37:14;;;;;;;3.75;1.60;;;;;;;;;;10552941;28;20024;-84
2023/03/22 19:42:15;;;;;;;2.97;1.73;;;;;;;;;;10551575;28;20458;-84
2023/03/22 19:47:17;;;;;;;5.80;2.17;;;;;;;;;;10553011;28;20470;-84
2023/03/22 19:52:18;;;;;;;2.63;1.35;;;;;;;;;;10551885;28;20028;-84
2023/03/22 19:57:41;;;;;;;2.00;1.20;;;;;;;;;;10555330;28;20028;-84
2023/03/22 20:02:42;;;;;;;;;;;;;;;;;;10559274;28;20093;-84
2023/03/22 20:07:43;;;;;;;3.50;1.65;;;;;;;;;;10544384;28;19904;-84
2023/03/22 20:12:48;;;;;;;3.10;1.48;;;;;;;;;;10565058;28;20024;-84
2023/03/22 20:17:54;;;;;;;3.10;1.50;;;;;;;;;;10555606;28;20034;-84
